In Rescue
 
Open Full Screen Window  High Contrast Mode
Wind Gusting 16 knots
06
May 25, 2022 10:36 PM EDT
Weather Information
Wind Direction
  160 °
Wind Speed
  06 kt (7 mph)
Wind Gust
  16 kt (18 mph)
Altimeter
29.98 in
Visibility
10 SM
Temperature
23° C
73° F
Dewpoint
18° C
64° F
Humidity
74%
1hr Rain Fall
00.00 in.
24hr Rain Fall
00.00 in.
Sky Condition
Clear
VFR

METAR KMRT 260236Z AUTO 16006G16KT 10SM CLR 23/18 A2998 RMK AO2 T02330176

FAA Disclaimer: The data displayed is for advisory purposes only and is not to be used for flight planning or operations.